Flight Track Log - Related Links

Times and Time Zones

All times are in EDT time to prevent confusion due to time zone crossing. See the EJA839 flight status page for this flight to view local times or setup timezone preferences in your user account.

Time Position Orientation Groundspeed Altitude Reporting Facility
EDT Latitude Longitude Course Direction KTS MPH feet Rate Location/Type
Sun 03:46:03 PM 27.1703 -80.1814 348° North 215 247 1,700  Level Miami Center
Sun 03:47:03 PM 27.2264 -80.1947 348° North 258 297 3,600 1,850 Climbing Miami Center
Sun 03:48:03 PM 27.2394 -80.2697 281° West 280 322 5,400 1,850 Climbing Miami Center
Sun 03:49:03 PM 27.2986 -80.3275 319° Northwest 270 311 7,300 2,300 Climbing Miami Center
Sun 03:50:03 PM 27.3742 -80.3883 324° Northwest 293 337 10,000 2,450 Climbing Miami Center
Sun 03:51:03 PM 27.4439 -80.4442 325° Northwest 309 356 12,200 2,250 Climbing Miami Center
Sun 03:52:03 PM 27.5156 -80.5028 324° Northwest 314 361 14,500 2,250 Climbing Miami Center
Sun 03:53:03 PM 27.5725 -80.5656 316° Northwest 314 361 16,700 2,100 Climbing Miami Center
Sun 03:54:03 PM 27.6372 -80.6403 314° West 320 368 18,700 2,100 Climbing Miami Center
Sun 03:55:03 PM 27.7108 -80.6989 325° Northwest 325 374 20,900 2,050 Climbing Miami Center
Sun 03:56:03 PM 27.7906 -80.7578 327° Northwest 325 374 22,800 1,850 Climbing Miami Center
Sun 03:57:03 PM 27.8706 -80.8169 327° Northwest 335 386 24,600 1,850 Climbing Miami Center
Sun 03:58:03 PM 27.9500 -80.8786 326° Northwest 346 398 26,500 1,650 Climbing Miami Center
Sun 03:59:03 PM 28.0319 -80.9403 326° Northwest 346 398 27,900 1,350 Climbing Miami Center
Sun 04:00:03 PM 28.1133 -81.0067 324° Northwest 352 405 29,200 1,400 Climbing Miami Center
Sun 04:01:03 PM 28.2125 -81.0408 343° North 352 405 30,700 1,550 Climbing Miami Center
Sun 04:02:03 PM 28.3081 -81.0586 351° North 350 403 32,300 1,600 Climbing Miami Center
Sun 04:03:03 PM 28.4056 -81.0811 349° North 350 403 33,900 1,350 Climbing Miami Center
Sun 04:04:03 PM 28.5031 -81.1014 350° North 350 403 35,000 1,100 Climbing Miami Center
Sun 04:05:03 PM 28.6025 -81.1242 349° North 355 409 36,100 1,113 Climbing Miami Center
Sun 04:05:40 PM 28.6744 -81.1417 348° North 353 406 36,800 1,113 Climbing Jacksonville Center
Sun 04:06:40 PM 28.7747 -81.1633 349° North 366 421 37,900 1,050 Climbing Jacksonville Center
Sun 04:07:40 PM 28.8772 -81.1853 349° North 366 421 38,900 550 Climbing Jacksonville Center
Sun 04:08:40 PM 28.9778 -81.2075 349° North 371 427 39,000 50 Climbing Jacksonville Center
Sun 04:09:40 PM 29.0844 -81.2317 349° North 377 434 39,000  Level Jacksonville Center
Sun 04:10:40 PM 29.1914 -81.2561 349° North 377 434 39,000  Level Jacksonville Center
Sun 04:11:40 PM 29.2939 -81.2781 349° North 377 434 39,000 450 Level Jacksonville Center
Sun 04:12:40 PM 29.3964 -81.3003 349° North 372 428 39,900 900 Climbing Jacksonville Center
Sun 04:13:40 PM 29.4967 -81.3106 355° North 372 428 40,800 900 Climbing Jacksonville Center
Sun 04:14:40 PM 29.5944 -81.2708 19° North 361 415 41,700 800 Climbing Jacksonville Center
Sun 04:15:40 PM 29.6961 -81.2261 21° North 375 432 42,400 600 Climbing Jacksonville Center
Sun 04:16:40 PM 29.8000 -81.1836 20° North 381 438 42,900  Climbing Jacksonville Center
Sun 04:17:40 PM 29.9036 -81.1411 20° North 386 444 42,400 50 Descending Jacksonville Center
Sun 04:18:40 PM 30.0136 -81.0936 21° North 391 450 43,000 300 Climbing Jacksonville Center
Sun 04:19:40 PM 30.1175 -81.0531 19° North 414 476 43,000  Level Jacksonville Center
Sun 04:20:40 PM 30.2317 -81.0053 20° North 429 494 43,000  Level Jacksonville Center
Sun 04:21:40 PM 30.3478 -80.9597 19° North 434 499 43,000  Level Jacksonville Center
Sun 04:22:40 PM 30.4642 -80.9092 21° North 439 505 43,000  Level Jacksonville Center
Sun 04:23:40 PM 30.5781 -80.8633 19° North 439 505 43,000  Level Jacksonville Center
Sun 04:24:40 PM 30.6942 -80.8150 20° North 439 505 43,000  Level Jacksonville Center
Sun 04:25:40 PM 30.8061 -80.7667 20° North 439 505 43,000  Level Jacksonville Center
Sun 04:26:40 PM 30.9244 -80.7203 19° North 439 505 43,000  Level Jacksonville Center
Sun 04:27:40 PM 31.0342 -80.6717 21° North 433 498 43,000  Level Jacksonville Center
Sun 04:28:40 PM 31.1525 -80.6228 19° North 433 498 43,000  Level Jacksonville Center
Sun 04:29:40 PM 31.2686 -80.5786 18° North 433 498 43,000  Level Jacksonville Center
Sun 04:30:40 PM 31.3803 -80.5272 21° North 427 491 43,000  Level Jacksonville Center
Sun 04:31:40 PM 31.4942 -80.4806 19° North 432 497 43,000  Level Jacksonville Center
Sun 04:32:40 PM 31.6061 -80.4336 20° North 427 491 43,000  Level Jacksonville Center
Sun 04:34:40 PM 31.8339 -80.3372 20° North 427 491 43,000  Level Jacksonville Center
Sun 04:35:40 PM 31.9475 -80.2850 21° North 427 491 43,000  Level Jacksonville Center
Sun 04:36:40 PM 32.0594 -80.2403 19° North 427 491 43,000  Level Jacksonville Center
Sun 04:37:40 PM 32.1772 -80.1878 21° North 427 491 43,000  Level Jacksonville Center
Sun 04:38:40 PM 32.2892 -80.1403 20° North 427 491 43,000  Level Jacksonville Center
Sun 04:39:40 PM 32.4006 -80.0900 21° North 427 491 43,000  Level Jacksonville Center
Sun 04:40:40 PM 32.5144 -80.0397 20° North 427 491 43,000  Level Jacksonville Center
Sun 04:41:40 PM 32.6303 -79.9917 19° North 427 491 43,000  Level Jacksonville Center
Sun 04:42:40 PM 32.7417 -79.9411 21° North 427 491 43,000  Level Jacksonville Center
Sun 04:43:40 PM 32.8553 -79.8906 20° North 427 491 43,000  Level Jacksonville Center
Sun 04:44:40 PM 32.9689 -79.8422 20° North 427 491 43,000  Level Jacksonville Center
Sun 04:45:40 PM 33.0950 -79.7858 21° North 427 491 43,000  Level Jacksonville Center
Sun 04:46:40 PM 33.2064 -79.7372 20° North 427 491 43,000  Level Jacksonville Center
Sun 04:47:40 PM 33.3178 -79.6886 20° North 422 486 43,000  Level Jacksonville Center
Sun 04:48:40 PM 33.4314 -79.6372 21° North 427 491 43,000  Level Jacksonville Center
Sun 04:49:40 PM 33.5447 -79.5883 20° North 427 491 43,000  Level Jacksonville Center
Sun 04:50:40 PM 33.6561 -79.5392 20° North 427 491 43,000  Level Jacksonville Center
Sun 04:51:40 PM 33.7656 -79.4900 20° North 427 491 43,000  Level Jacksonville Center
Sun 04:52:40 PM 33.8769 -79.4406 20° North 427 491 43,000  Level Jacksonville Center
Sun 04:53:40 PM 33.9842 -79.3964 19° North 421 484 43,000  Level Jacksonville Center
Sun 04:55:24 PM 34.1619 -79.3139 21° North 422 486 43,000  Level Washington Center
Sun 04:56:25 PM 34.2892 -79.2492 23° Northeast 440 506 43,000  Level Washington Center
Sun 04:57:26 PM 34.3994 -79.1861 25° Northeast 440 506 43,000  Level Washington Center
Sun 04:58:27 PM 34.5097 -79.1256 24° Northeast 435 501 43,000  Level Washington Center
Sun 04:59:25 PM 34.6181 -79.0619 26° Northeast 429 494 43,000  Level Washington Center
Sun 05:00:25 PM 34.7283 -78.9983 25° Northeast 429 494 43,000  Level Washington Center
Sun 05:01:26 PM 34.8367 -78.9347 26° Northeast 429 494 43,000  Level Washington Center
Sun 05:02:24 PM 34.9469 -78.8708 25° Northeast 429 494 43,000  Level Washington Center
Sun 05:03:25 PM 35.0592 -78.8044 26° Northeast 429 494 43,000  Level Washington Center
Sun 05:04:26 PM 35.1672 -78.7425 25° Northeast 429 494 43,000  Level Washington Center
Sun 05:05:23 PM 35.2775 -78.6783 25° Northeast 429 494 43,000  Level Washington Center
Sun 05:06:24 PM 35.3900 -78.6086 27° Northeast 435 501 43,000  Level Washington Center
Sun 05:07:24 PM 35.4978 -78.5439 26° Northeast 430 495 43,000  Level Washington Center
Sun 05:08:25 PM 35.6081 -78.4789 26° Northeast 430 495 43,000  Level Washington Center
Sun 05:09:25 PM 35.7094 -78.4211 25° Northeast 435 501 43,000 -99 Level Washington Center
Sun 05:10:26 PM 35.8175 -78.3558 26° Northeast 435 501 42,800 -793 Descending Washington Center
Sun 05:11:26 PM 35.9233 -78.2928 26° Northeast 424 488 41,400 -1,500 Descending Washington Center
Sun 05:12:26 PM 36.0269 -78.2322 25° Northeast 412 474 39,800 -1,576 Descending Washington Center
Sun 05:13:24 PM 36.1242 -78.1711 27° Northeast 402 463 38,300 -1,513 Descending Washington Center
Sun 05:14:25 PM 36.2339 -78.1078 25° Northeast 412 474 36,800 -1,488 Descending Washington Center
Sun 05:15:25 PM 36.3439 -78.0392 27° Northeast 424 488 35,300 -1,488 Descending Washington Center
Sun 05:16:26 PM 36.4517 -77.9703 27° Northeast 430 495 33,800 -1,160 Descending Washington Center
Sun 05:17:24 PM 36.5636 -77.9039 25° Northeast 430 495 33,000 -1,008 Descending Washington Center
Sun 05:18:25 PM 36.6756 -77.8242 30° Northeast 435 501 31,800 -1,180 Descending Washington Center
Sun 05:19:26 PM 36.7836 -77.7367 33° Northeast 448 516 30,600 -1,361 Descending Washington Center
Sun 05:20:24 PM 36.8936 -77.6514 32° Northeast 461 531 29,100 -1,525 Descending Washington Center
Sun 05:21:24 PM 37.0014 -77.5658 32° Northeast 461 531 27,600 -1,339 Descending Washington Center
Sun 05:22:25 PM 37.1072 -77.4800 33° Northeast 461 531 26,400 -836 Descending Washington Center
Sun 05:23:26 PM 37.2128 -77.3939 33° Northeast 461 531 25,900 -750 Descending Washington Center
Sun 05:24:25 PM 37.3161 -77.3103 33° Northeast 454 522 24,900 -1,008 Descending Washington Center
Sun 05:25:25 PM 37.4175 -77.2261 33° Northeast 442 509 23,900 -942 Descending Washington Center
Sun 05:26:26 PM 37.5167 -77.1472 32° Northeast 437 503 23,000 -454 Descending Washington Center
Sun 05:27:24 PM 37.6178 -77.0625 34° Northeast 432 497 23,000  Level Washington Center
Sun 05:28:25 PM 37.7167 -76.9806 33° Northeast 426 490 23,000  Level Washington Center
Sun 05:29:25 PM 37.8178 -76.8983 33° Northeast 426 490 23,000 -446 Level Washington Center
Sun 05:30:26 PM 37.9189 -76.8158 33° Northeast 426 490 22,100 -1,109 Descending Washington Center
Sun 05:31:24 PM 38.0194 -76.7594 24° Northeast 406 467 20,800 -1,361 Descending Washington Center
Sun 05:32:25 PM 38.1242 -76.7031 23° Northeast 401 461 19,400 -1,377 Descending Washington Center
Sun 05:33:26 PM 38.2247 -76.6489 23° Northeast 395 455 18,000 -1,261 Descending Washington Center
Sun 05:34:24 PM 38.3211 -76.5972 23° Northeast 395 455 16,900 -1,261 Descending Washington Center
Sun 05:35:25 PM 38.3928 -76.4950 48° Northeast 373 429 15,500 -1,289 Descending Washington Center
Sun 05:36:25 PM 38.4583 -76.3925 51° Northeast 367 422 14,300 -1,140 Descending Washington Center
Sun 05:37:26 PM 38.5214 -76.2922 51° Northeast 367 422 13,200 -655 Descending Washington Center
Sun 05:38:24 PM 38.5867 -76.1947 49° Northeast 367 422 13,000 -101 Descending Washington Center
Sun 05:39:25 PM 38.6581 -76.0756 52° Northeast 372 428 13,000  Level Washington Center
Sun 05:40:26 PM 38.7314 -75.9856 44° Northeast 367 422 13,000  Level Washington Center
Sun 05:41:24 PM 38.8128 -75.9114 35° Northeast 356 410 13,000  Level Washington Center
Sun 05:42:25 PM 38.8942 -75.8369 35° Northeast 356 410 13,000  Level Washington Center
Sun 05:43:25 PM 38.9736 -75.7597 37° Northeast 356 410 13,000  Level Washington Center
Sun 05:44:26 PM 39.0550 -75.6878 34° Northeast 356 410 13,000 -350 Level Washington Center
Sun 05:45:25 PM 39.1508 -75.6667 10° North 340 391 12,300 -311 Descending Washington Center
Sun 05:47:39 PM 39.3667 -75.6500 North 348 400 12,000 -410 Descending Philadelphia TRACON
Sun 05:48:50 PM 39.4833 -75.6167 12° North 314 361 10,900 -1,227 Descending Philadelphia TRACON
Sun 05:49:51 PM 39.5500 -75.6000 11° North 295 339 9,300 -1,488 Descending Philadelphia TRACON
Sun 05:50:51 PM 39.6333 -75.5667 17° North 298 343 7,900 -1,100 Descending Philadelphia TRACON
Sun 05:51:51 PM 39.7167 -75.5500 North 286 329 7,100 -800 Descending Philadelphia TRACON
Sun 05:52:51 PM 39.8000 -75.5333 North 284 327 6,300 -1,000 Descending Philadelphia TRACON
Sun 05:53:51 PM 39.8667 -75.5167 11° North 275 316 5,100 -1,250 Descending Philadelphia TRACON
Sun 05:54:51 PM 39.9500 -75.5000 North 263 303 3,800 -1,050 Descending Philadelphia TRACON
Sun 05:55:51 PM 40.0000 -75.4333 46° Northeast 215 247 3,000 -400 Descending Philadelphia TRACON
Sun 05:56:51 PM 40.0333 -75.3667 57° Northeast 224 258 3,000 53 Level Philadelphia TRACON
Sun 05:57:45 PM 40.0667 -75.3333 37° Northeast 225 259 3,100 111 Climbing Philadelphia TRACON

Login

Don't have an account? Register now (free) for customized features, flight alerts, and more!